Time;durP1;ratioP1;P1;durP2;ratioP2;P2;SDS_P1;SDS_P2;PMS_P1;PMS_P2;Temp;Humidity;BMP_temperature;BMP_pressure;BME280_temperature;BME280_humidity;BME280_pressure;Samples;Min_cycle;Max_cycle;Signal;HPM_P1;HPM_P2
2023/05/25 00:01:23;;;;;;;7.90;4.07;;;10.80;62.80;;;;;;5019130;28;20722;-61
2023/05/25 00:03:51;;;;;;;8.60;4.30;;;10.80;62.30;;;;;;5024125;28;20608;-62
2023/05/25 00:06:18;;;;;;;13.47;4.97;;;10.80;62.30;;;;;;5023316;28;20227;-61
2023/05/25 00:08:45;;;;;;;8.40;4.13;;;10.80;62.40;;;;;;5017870;28;20497;-62
2023/05/25 00:11:11;;;;;;;11.17;4.27;;;10.80;62.20;;;;;;5021594;28;20951;-62
2023/05/25 00:13:38;;;;;;;10.57;4.40;;;10.80;62.00;;;;;;5022426;28;20419;-61
2023/05/25 00:16:04;;;;;;;9.63;4.53;;;10.80;62.20;;;;;;5034466;28;20468;-62
2023/05/25 00:18:31;;;;;;;7.73;4.00;;;10.80;61.80;;;;;;5022926;28;20426;-62
2023/05/25 00:20:57;;;;;;;12.50;4.73;;;10.90;61.80;;;;;;5019336;28;20889;-60
2023/05/25 00:23:23;;;;;;;11.50;4.70;;;10.90;61.30;;;;;;5020916;28;20426;-62
2023/05/25 00:25:49;;;;;;;10.97;3.43;;;10.90;60.50;;;;;;5024743;28;20493;-61
2023/05/25 00:28:14;;;;;;;14.63;4.10;;;10.90;60.50;;;;;;5019870;28;20326;-61
2023/05/25 00:30:40;;;;;;;13.30;5.17;;;10.90;60.80;;;;;;5022932;28;20180;-61
2023/05/25 00:33:07;;;;;;;4.67;3.57;;;10.90;60.50;;;;;;5022180;28;20214;-61
2023/05/25 00:35:33;;;;;;;10.70;4.70;;;10.90;60.30;;;;;;5026431;28;20762;-61
2023/05/25 00:37:58;;;;;;;18.43;4.00;;;10.90;60.20;;;;;;5015771;28;20446;-61
2023/05/25 00:40:24;;;;;;;9.83;4.43;;;10.90;59.90;;;;;;5026114;28;20243;-61
2023/05/25 00:42:51;;;;;;;10.30;4.13;;;10.90;59.90;;;;;;5021357;28;20200;-62
2023/05/25 00:45:16;;;;;;;8.60;4.13;;;10.90;59.90;;;;;;5024165;28;20219;-62
2023/05/25 00:47:44;;;;;;;10.70;4.30;;;10.90;59.60;;;;;;5024257;28;20426;-61
2023/05/25 00:50:16;;;;;;;12.43;4.30;;;10.90;59.30;;;;;;5021644;28;20204;-62
2023/05/25 00:52:41;;;;;;;13.90;4.97;;;10.90;59.20;;;;;;5022344;28;20504;-62
2023/05/25 00:55:10;;;;;;;9.97;4.10;;;10.90;59.20;;;;;;5023379;28;20459;-61
2023/05/25 00:57:37;;;;;;;8.10;4.20;;;10.80;59.20;;;;;;5021671;28;20176;-61
2023/05/25 01:00:10;;;;;;;13.50;5.60;;;10.80;59.20;;;;;;5023493;28;20437;-62
2023/05/25 01:02:39;;;;;;;12.50;4.33;;;10.80;59.50;;;;;;5023065;28;20446;-62
2023/05/25 01:05:07;;;;;;;7.50;4.23;;;10.80;59.20;;;;;;5018426;28;20455;-61
2023/05/25 01:07:35;;;;;;;7.77;4.00;;;10.70;59.00;;;;;;5019613;28;20472;-62
2023/05/25 01:10:04;;;;;;;8.27;4.30;;;10.70;58.80;;;;;;5025719;28;20419;-61
2023/05/25 01:12:35;;;;;;;11.53;4.37;;;10.70;59.40;;;;;;5020481;28;20451;-61
2023/05/25 01:15:02;;;;;;;9.77;4.43;;;10.70;58.60;;;;;;5024168;28;20949;-62
2023/05/25 01:17:28;;;;;;;12.80;4.90;;;10.70;58.30;;;;;;5030609;28;20812;-61
2023/05/25 01:19:54;;;;;;;5.90;3.60;;;10.70;58.40;;;;;;5025214;28;20517;-61
2023/05/25 01:22:39;;;;;;;10.67;4.20;;;10.70;58.30;;;;;;5024755;28;20258;-61
2023/05/25 01:25:28;;;;;;;5.70;3.70;;;10.70;58.20;;;;;;5023268;28;20203;-61
2023/05/25 01:28:02;;;;;;;10.13;3.80;;;10.70;58.20;;;;;;5026950;28;20470;-62
2023/05/25 01:30:31;;;;;;;10.07;5.53;;;10.70;58.50;;;;;;5022725;28;20787;-62
2023/05/25 01:32:58;;;;;;;9.33;3.90;;;10.70;58.30;;;;;;5019741;28;20438;-62
2023/05/25 01:35:26;;;;;;;9.20;4.00;;;10.70;58.40;;;;;;5020631;28;20505;-61
2023/05/25 01:37:51;;;;;;;13.00;4.30;;;10.70;58.50;;;;;;5027716;28;20488;-61
2023/05/25 01:40:17;;;;;;;8.33;4.33;;;10.70;58.50;;;;;;5023663;28;20430;-61
2023/05/25 01:42:43;;;;;;;10.00;4.27;;;10.70;58.50;;;;;;5024014;28;20265;-62
2023/05/25 01:45:10;;;;;;;7.80;4.40;;;10.70;58.60;;;;;;5022767;28;20208;-61
2023/05/25 01:48:05;;;;;;;8.33;3.50;;;10.70;58.60;;;;;;5032575;28;20224;-61
2023/05/25 01:50:56;;;;;;;11.40;5.03;;;10.70;58.50;;;;;;5017916;28;20418;-61
2023/05/25 01:53:39;;;;;;;7.57;3.97;;;10.70;58.40;;;;;;5017838;28;20442;-61
2023/05/25 01:56:07;;;;;;;10.10;4.53;;;10.70;58.30;;;;;;5017434;28;20872;-60
2023/05/25 01:58:44;;;;;;;8.00;4.20;;;10.80;58.40;;;;;;5027787;28;20565;-61
2023/05/25 02:01:13;;;;;;;11.97;5.40;;;10.80;58.60;;;;;;5025611;28;20457;-61
2023/05/25 02:03:40;;;;;;;11.87;4.07;;;10.80;58.70;;;;;;5022340;28;20426;-62
2023/05/25 02:06:07;;;;;;;15.27;4.40;;;10.80;58.30;;;;;;5026466;28;20480;-62
2023/05/25 02:08:32;;;;;;;13.23;4.47;;;10.80;58.20;;;;;;5023729;28;20450;-62
2023/05/25 02:10:58;;;;;;;8.97;3.90;;;10.70;58.20;;;;;;5023826;28;20491;-60
2023/05/25 02:13:24;;;;;;;9.50;4.07;;;10.80;58.20;;;;;;5023837;28;20210;-62
2023/05/25 02:15:50;;;;;;;9.27;4.50;;;10.80;58.40;;;;;;5013815;28;20267;-62
2023/05/25 02:18:16;;;;;;;8.00;4.23;;;10.70;57.90;;;;;;5022036;28;20207;-62
2023/05/25 02:20:43;;;;;;;8.10;3.70;;;10.70;58.00;;;;;;5015074;28;20183;-62
2023/05/25 02:23:09;;;;;;;12.97;4.90;;;10.70;58.00;;;;;;5021058;28;20483;-61
2023/05/25 02:25:34;;;;;;;8.00;3.77;;;10.70;58.50;;;;;;5019005;28;20491;-62
2023/05/25 02:28:00;;;;;;;10.33;4.53;;;10.70;58.20;;;;;;5022512;28;20454;-62
2023/05/25 02:30:26;;;;;;;10.70;4.63;;;10.70;58.10;;;;;;5024999;28;20172;-62
2023/05/25 02:32:52;;;;;;;13.57;4.63;;;10.70;58.20;;;;;;5021273;28;20249;-62
2023/05/25 02:35:18;;;;;;;6.77;3.97;;;10.70;58.20;;;;;;5026372;28;20176;-62
2023/05/25 02:37:44;;;;;;;6.43;4.23;;;10.70;58.20;;;;;;5026779;28;20422;-62
2023/05/25 02:40:11;;;;;;;6.43;4.27;;;10.70;58.20;;;;;;5023901;28;20234;-62
2023/05/25 02:42:37;;;;;;;9.27;3.83;;;10.70;58.30;;;;;;5022259;28;20906;-62
2023/05/25 02:45:05;;;;;;;13.00;4.63;;;10.70;58.50;;;;;;5024526;28;20497;-62
2023/05/25 02:47:30;;;;;;;12.53;4.70;;;10.60;58.50;;;;;;5021068;28;20218;-63
2023/05/25 02:49:56;;;;;;;13.10;5.60;;;10.60;58.60;;;;;;5025578;28;20427;-61
2023/05/25 02:52:24;;;;;;;6.00;3.80;;;10.60;58.60;;;;;;5021087;28;20539;-62
2023/05/25 02:54:50;;;;;;;7.57;4.23;;;10.60;58.70;;;;;;5025180;28;20189;-62
2023/05/25 02:57:15;;;;;;;11.73;4.57;;;10.50;58.80;;;;;;5026922;28;20441;-63
2023/05/25 02:59:41;;;;;;;11.53;5.07;;;10.50;59.00;;;;;;5052195;22;20321;-55
2023/05/25 03:02:07;;;;;;;9.13;4.30;;;10.50;59.20;;;;;;5004959;28;20705;-57
2023/05/25 03:04:36;;;;;;;11.73;4.57;;;10.50;59.10;;;;;;5001404;28;20456;-56
2023/05/25 03:07:01;;;;;;;15.63;5.17;;;10.50;59.10;;;;;;5010047;28;20303;-56
2023/05/25 03:09:27;;;;;;;9.43;4.60;;;10.50;59.30;;;;;;5006040;28;20526;-56
2023/05/25 03:11:53;;;;;;;9.70;4.80;;;10.50;59.30;;;;;;5004487;28;20657;-55
2023/05/25 03:14:18;;;;;;;9.83;4.17;;;10.50;59.30;;;;;;5009360;28;20197;-57
2023/05/25 03:16:44;;;;;;;10.27;4.80;;;10.50;59.50;;;;;;5007003;28;20809;-60
2023/05/25 03:19:10;;;;;;;8.27;4.70;;;10.50;59.70;;;;;;5006924;28;20187;-57
2023/05/25 03:21:37;;;;;;;7.57;4.40;;;10.40;59.80;;;;;;5004654;28;20238;-57
2023/05/25 03:24:03;;;;;;;11.50;4.40;;;10.40;59.60;;;;;;5006220;28;20510;-55
2023/05/25 03:26:29;;;;;;;13.10;4.50;;;10.40;59.90;;;;;;5006021;28;20962;-55
2023/05/25 03:28:55;;;;;;;12.73;5.27;;;10.40;60.30;;;;;;5004779;28;20958;-57
2023/05/25 03:31:21;;;;;;;8.90;4.73;;;10.40;60.50;;;;;;4999539;28;20459;-59
2023/05/25 03:33:47;;;;;;;11.47;6.07;;;10.40;60.70;;;;;;5006437;28;20458;-56
2023/05/25 03:36:16;;;;;;;14.73;4.70;;;10.40;61.10;;;;;;5009794;28;20934;-56
2023/05/25 03:38:42;;;;;;;8.70;5.07;;;10.40;61.10;;;;;;5005580;28;20271;-56
2023/05/25 03:41:08;;;;;;;14.13;6.07;;;10.30;61.30;;;;;;5005140;28;20443;-56
2023/05/25 03:43:33;;;;;;;14.60;5.30;;;10.30;61.60;;;;;;5001057;28;20544;-57
2023/05/25 03:45:59;;;;;;;12.67;5.20;;;10.30;61.50;;;;;;5006755;28;20231;-57
2023/05/25 03:48:25;;;;;;;17.37;5.50;;;10.30;62.10;;;;;;5006685;28;20185;-57
2023/05/25 03:50:51;;;;;;;16.47;5.87;;;10.20;62.30;;;;;;5003961;28;20231;-56
2023/05/25 03:53:16;;;;;;;17.30;5.90;;;10.20;62.40;;;;;;4997592;28;20177;-57
2023/05/25 03:55:42;;;;;;;14.57;5.80;;;10.20;62.80;;;;;;5003196;28;20258;-57
2023/05/25 03:58:11;;;;;;;9.83;5.13;;;10.20;63.50;;;;;;5004884;28;20581;-55
2023/05/25 04:00:36;;;;;;;17.50;5.70;;;10.20;64.10;;;;;;5004088;28;20287;-56
2023/05/25 04:03:02;;;;;;;14.00;5.90;;;10.20;65.00;;;;;;5005221;28;20857;-56
2023/05/25 04:05:28;;;;;;;11.97;5.90;;;10.20;65.00;;;;;;5001376;28;20725;-56
2023/05/25 04:07:54;;;;;;;17.93;5.60;;;10.30;65.10;;;;;;4997093;28;20189;-55
2023/05/25 04:10:20;;;;;;;12.50;6.10;;;10.30;65.20;;;;;;4987245;28;20540;-56
2023/05/25 04:12:46;;;;;;;12.83;5.80;;;10.30;65.30;;;;;;4997887;28;20431;-54
2023/05/25 04:15:13;;;;;;;8.27;5.13;;;10.20;65.70;;;;;;4996127;28;20431;-55
2023/05/25 04:17:39;;;;;;;11.03;5.53;;;10.30;66.30;;;;;;4996072;28;20775;-55
2023/05/25 04:20:07;;;;;;;12.13;5.73;;;10.20;66.80;;;;;;4999944;28;20541;-53
2023/05/25 04:22:33;;;;;;;14.30;5.97;;;10.20;67.10;;;;;;5002798;28;21216;-55
2023/05/25 04:24:58;;;;;;;12.43;5.77;;;10.20;67.40;;;;;;5003701;28;20561;-55
2023/05/25 04:27:25;;;;;;;18.60;7.00;;;10.20;68.10;;;;;;5002443;28;20255;-55
2023/05/25 04:29:52;;;;;;;8.20;5.40;;;10.20;68.10;;;;;;4999146;28;20630;-55
2023/05/25 04:32:20;;;;;;;16.87;5.63;;;10.30;68.90;;;;;;4988300;28;20439;-55
2023/05/25 04:34:47;;;;;;;16.70;7.20;;;10.20;68.60;;;;;;5002608;28;20467;-56
2023/05/25 04:37:12;;;;;;;13.73;6.20;;;10.20;69.40;;;;;;4993916;28;20498;-57
2023/05/25 04:39:38;;;;;;;10.27;5.93;;;10.20;69.70;;;;;;4993128;28;20455;-55
2023/05/25 04:42:04;;;;;;;11.90;5.37;;;10.30;69.70;;;;;;5003359;28;20726;-56
2023/05/25 04:44:31;;;;;;;16.90;6.63;;;10.30;70.60;;;;;;4991426;28;20191;-57
2023/05/25 04:47:00;;;;;;;15.60;6.17;;;10.30;69.70;;;;;;5001773;28;20866;-57
2023/05/25 04:49:26;;;;;;;14.27;6.73;;;10.40;70.50;;;;;;4996985;28;21160;-56
2023/05/25 04:51:52;;;;;;;17.37;6.40;;;10.40;70.20;;;;;;4989701;28;20439;-53
2023/05/25 04:54:18;;;;;;;14.40;5.43;;;10.50;70.90;;;;;;4993829;28;20180;-56
2023/05/25 04:56:43;;;;;;;12.63;5.77;;;10.50;71.00;;;;;;4982903;28;20603;-56
2023/05/25 04:59:09;;;;;;;13.23;7.00;;;10.50;70.80;;;;;;4998206;28;20216;-56
2023/05/25 05:01:39;;;;;;;10.80;6.77;;;10.60;71.20;;;;;;5001438;28;20280;-56
2023/05/25 05:04:08;;;;;;;12.27;6.10;;;10.60;71.40;;;;;;4997988;28;20431;-57
2023/05/25 05:06:33;;;;;;;15.33;7.03;;;10.60;71.60;;;;;;5004831;28;21167;-55
2023/05/25 05:09:00;;;;;;;14.60;6.80;;;10.70;71.70;;;;;;5001788;28;20428;-55
2023/05/25 05:11:28;;;;;;;18.33;7.30;;;10.70;72.30;;;;;;4986898;28;20645;-54
2023/05/25 05:13:55;;;;;;;12.30;7.17;;;10.80;72.00;;;;;;5000555;28;20424;-54
2023/05/25 05:16:21;;;;;;;15.00;6.77;;;10.80;73.20;;;;;;4998005;28;20443;-55
2023/05/25 05:18:47;;;;;;;13.57;6.93;;;10.90;72.70;;;;;;5003761;28;20439;-55
2023/05/25 05:21:13;;;;;;;12.33;7.13;;;11.00;73.10;;;;;;5015091;28;20459;-56
2023/05/25 05:23:39;;;;;;;15.17;6.90;;;11.00;72.70;;;;;;4995658;28;20287;-56
2023/05/25 05:26:06;;;;;;;17.00;7.20;;;11.00;73.80;;;;;;5004260;28;20279;-55
2023/05/25 05:28:31;;;;;;;17.00;8.00;;;11.10;74.30;;;;;;5003430;28;20176;-56
2023/05/25 05:30:57;;;;;;;17.43;7.90;;;11.20;74.70;;;;;;5004966;28;20636;-56
2023/05/25 05:33:22;;;;;;;16.20;8.60;;;11.20;75.20;;;;;;5005134;28;20168;-55
2023/05/25 05:35:49;;;;;;;18.40;6.93;;;11.30;75.30;;;;;;4991853;28;20181;-56
2023/05/25 05:38:15;;;;;;;15.03;7.37;;;11.40;75.90;;;;;;4993237;28;20180;-56
2023/05/25 05:40:41;;;;;;;17.63;7.80;;;11.50;76.40;;;;;;5002549;28;20458;-55
2023/05/25 05:43:08;;;;;;;15.57;8.10;;;11.50;76.50;;;;;;5004381;28;20249;-56
2023/05/25 05:45:34;;;;;;;15.27;8.43;;;11.50;76.90;;;;;;4998523;28;20270;-56
2023/05/25 05:47:59;;;;;;;17.73;9.00;;;11.60;77.30;;;;;;4991350;28;21148;-55
2023/05/25 05:50:25;;;;;;;17.67;9.77;;;11.60;78.10;;;;;;5000212;28;20290;-56
2023/05/25 05:52:52;;;;;;;17.47;8.93;;;11.70;79.40;;;;;;5002748;28;20175;-56
2023/05/25 05:55:19;;;;;;;13.73;8.60;;;11.80;79.80;;;;;;4999314;28;20177;-55
2023/05/25 05:57:45;;;;;;;17.40;9.27;;;11.90;80.30;;;;;;4998681;28;20416;-55
2023/05/25 06:00:12;;;;;;;16.47;9.30;;;11.90;80.40;;;;;;5000063;28;20494;-55
2023/05/25 06:02:37;;;;;;;20.43;9.97;;;12.00;80.80;;;;;;5002237;28;20803;-56
2023/05/25 06:05:03;;;;;;;15.57;8.80;;;12.10;82.10;;;;;;4996070;28;20550;-55
2023/05/25 06:07:29;;;;;;;15.67;9.80;;;12.10;83.00;;;;;;4999072;28;20226;-53
2023/05/25 06:09:55;;;;;;;15.53;8.70;;;12.20;83.70;;;;;;5000386;28;20554;-56
2023/05/25 06:12:21;;;;;;;18.63;9.23;;;12.20;84.20;;;;;;4992526;28;20425;-57
2023/05/25 06:14:49;;;;;;;17.87;9.30;;;12.30;84.50;;;;;;5000409;28;20430;-56
2023/05/25 06:17:15;;;;;;;21.37;9.90;;;12.40;83.90;;;;;;5000846;28;20671;-56
2023/05/25 06:19:41;;;;;;;16.07;9.40;;;12.40;84.10;;;;;;5003506;28;20455;-57
2023/05/25 06:22:07;;;;;;;20.10;9.17;;;12.40;84.10;;;;;;4999768;28;20605;-57
2023/05/25 06:24:32;;;;;;;14.97;9.63;;;12.40;85.70;;;;;;5002274;28;20431;-57
2023/05/25 06:26:58;;;;;;;14.77;9.20;;;12.50;86.00;;;;;;5005540;28;20207;-57
2023/05/25 06:29:23;;;;;;;19.27;9.93;;;12.50;86.40;;;;;;5006271;28;21952;-57
2023/05/25 06:31:49;;;;;;;14.33;8.90;;;12.60;87.30;;;;;;5004812;28;20177;-57
2023/05/25 06:34:15;;;;;;;19.13;10.50;;;12.70;87.90;;;;;;5009028;28;20180;-57
2023/05/25 06:36:40;;;;;;;24.27;10.63;;;12.80;87.50;;;;;;5007507;28;20656;-58
2023/05/25 06:39:06;;;;;;;22.67;10.13;;;12.80;85.80;;;;;;5006515;28;21440;-57
2023/05/25 06:41:31;;;;;;;18.53;9.90;;;12.90;86.50;;;;;;5004033;28;20329;-57
2023/05/25 06:43:57;;;;;;;21.93;12.03;;;12.90;86.00;;;;;;5008153;28;20194;-57
2023/05/25 06:46:23;;;;;;;18.53;10.20;;;12.90;86.40;;;;;;5007307;28;20312;-57
2023/05/25 06:48:48;;;;;;;23.10;10.10;;;12.90;88.10;;;;;;5008114;28;20176;-57
2023/05/25 06:51:14;;;;;;;23.17;10.30;;;12.90;89.20;;;;;;4993179;28;20279;-55
2023/05/25 06:53:40;;;;;;;23.63;11.07;;;12.90;90.20;;;;;;5003843;28;20179;-56
2023/05/25 06:56:05;;;;;;;27.43;12.00;;;12.90;90.30;;;;;;5001296;28;20177;-56
2023/05/25 06:58:31;;;;;;;24.80;11.40;;;12.90;90.50;;;;;;5008175;28;20192;-56
2023/05/25 07:00:58;;;;;;;15.20;9.77;;;12.90;90.80;;;;;;5006728;28;20295;-58
2023/05/25 07:03:24;;;;;;;20.17;11.20;;;12.80;91.60;;;;;;5003078;28;20249;-57
2023/05/25 07:05:49;;;;;;;18.17;11.43;;;12.80;91.90;;;;;;5006152;28;20523;-57
2023/05/25 07:08:15;;;;;;;29.23;11.50;;;12.80;92.80;;;;;;5006864;28;20189;-57
2023/05/25 07:10:40;;;;;;;23.77;11.70;;;12.80;92.80;;;;;;5005142;28;20201;-57
2023/05/25 07:13:06;;;;;;;14.97;10.23;;;12.80;93.50;;;;;;4997512;28;20292;-57
2023/05/25 07:15:32;;;;;;;23.57;11.67;;;12.80;93.70;;;;;;4999736;28;20873;-57
2023/05/25 07:17:57;;;;;;;24.50;10.73;;;12.70;94.10;;;;;;5002746;28;20257;-56
2023/05/25 07:20:23;;;;;;;19.17;9.80;;;12.80;93.70;;;;;;4999912;28;20277;-56
2023/05/25 07:22:49;;;;;;;23.17;10.70;;;12.80;93.80;;;;;;5003361;28;20189;-56
2023/05/25 07:25:15;;;;;;;18.20;11.27;;;12.80;94.00;;;;;;5004783;28;20192;-56
2023/05/25 07:27:41;;;;;;;14.30;9.50;;;12.80;95.10;;;;;;5002071;28;20442;-56
2023/05/25 07:30:08;;;;;;;18.70;11.20;;;12.80;95.20;;;;;;5001051;28;20248;-55
2023/05/25 07:32:33;;;;;;;15.40;10.00;;;12.80;95.80;;;;;;5008453;28;20455;-56
2023/05/25 07:35:00;;;;;;;16.53;10.77;;;12.80;96.70;;;;;;5004886;28;20439;-56
2023/05/25 07:37:25;;;;;;;17.97;10.23;;;12.80;97.20;;;;;;5000218;28;20229;-57
2023/05/25 07:39:51;;;;;;;20.07;10.47;;;12.90;97.60;;;;;;5001482;28;20463;-56
2023/05/25 07:42:19;;;;;;;20.93;9.93;;;12.90;97.80;;;;;;5000174;28;20640;-56
2023/05/25 07:44:48;;;;;;;21.60;10.83;;;12.90;97.30;;;;;;5002621;28;20212;-56
2023/05/25 07:47:14;;;;;;;19.97;10.30;;;12.90;97.00;;;;;;5003629;28;20489;-56
2023/05/25 07:49:40;;;;;;;17.90;10.73;;;12.90;97.90;;;;;;5004163;28;20871;-57
2023/05/25 07:52:06;;;;;;;13.73;9.20;;;13.00;97.60;;;;;;5004778;28;20654;-56
2023/05/25 07:54:31;;;;;;;16.40;10.00;;;13.00;98.50;;;;;;5005567;28;20173;-56
2023/05/25 07:56:57;;;;;;;16.80;9.80;;;13.00;98.60;;;;;;5004513;28;20419;-56
2023/05/25 07:59:25;;;;;;;17.27;8.90;;;13.00;98.00;;;;;;5010720;28;20219;-56
2023/05/25 08:01:51;;;;;;;15.57;10.10;;;13.00;98.50;;;;;;4996421;28;20185;-56
2023/05/25 08:04:16;;;;;;;13.97;8.77;;;13.00;98.30;;;;;;5004922;28;20811;-55
2023/05/25 08:06:43;;;;;;;19.70;9.90;;;13.00;98.80;;;;;;5000683;28;20204;-55
2023/05/25 08:09:09;;;;;;;13.50;9.13;;;13.00;99.50;;;;;;4997759;28;20171;-53
2023/05/25 08:11:34;;;;;;;14.20;8.70;;;13.00;99.90;;;;;;4994946;28;20431;-55
2023/05/25 08:14:00;;;;;;;15.40;9.67;;;13.00;99.10;;;;;;5001706;28;20204;-55
2023/05/25 08:16:26;;;;;;;13.40;9.10;;;13.10;99.60;;;;;;5002585;28;20218;-54
2023/05/25 08:18:51;;;;;;;14.47;8.70;;;13.00;99.10;;;;;;4998482;28;20176;-55
2023/05/25 08:21:17;;;;;;;12.17;8.00;;;13.10;99.70;;;;;;4996568;28;20805;-54
2023/05/25 08:23:43;;;;;;;12.83;8.13;;;13.10;99.90;;;;;;5001422;28;20188;-56
2023/05/25 08:26:11;;;;;;;14.70;8.97;;;13.10;99.90;;;;;;4998022;28;21223;-54
2023/05/25 08:28:37;;;;;;;12.70;8.40;;;13.20;99.90;;;;;;5003736;28;20671;-55
2023/05/25 08:31:03;;;;;;;11.00;7.80;;;13.30;99.90;;;;;;5003373;28;20463;-55
2023/05/25 08:33:29;;;;;;;16.80;8.60;;;13.40;99.90;;;;;;4998538;28;20224;-54
2023/05/25 08:35:55;;;;;;;14.53;8.33;;;13.50;99.90;;;;;;4996647;28;20593;-55
2023/05/25 08:38:24;;;;;;;19.10;9.20;;;13.50;98.10;;;;;;4994267;28;20431;-55
2023/05/25 08:41:05;;;;;;;12.27;7.57;;;13.50;97.70;;;;;;5004305;28;20204;-55
2023/05/25 08:43:32;;;;;;;14.43;8.40;;;13.60;98.00;;;;;;4994039;28;20506;-54
2023/05/25 08:46:03;;;;;;;24.57;8.47;;;13.60;97.90;;;;;;5003521;28;20523;-55
2023/05/25 08:48:31;;;;;;;11.20;7.90;;;13.70;96.60;;;;;;5003383;28;20535;-54
2023/05/25 08:51:06;;;;;;;12.40;8.30;;;13.80;96.90;;;;;;5000479;28;21036;-55
2023/05/25 08:53:35;;;;;;;14.20;8.10;;;13.80;96.90;;;;;;4996878;28;20973;-54
2023/05/25 08:56:06;;;;;;;12.73;8.47;;;13.80;96.40;;;;;;5003576;28;20912;-55
2023/05/25 08:58:39;;;;;;;10.63;7.57;;;13.80;95.30;;;;;;5001670;28;21108;-54
2023/05/25 09:01:08;;;;;;;13.93;8.90;;;13.80;94.40;;;;;;4999900;28;20501;-55
2023/05/25 09:03:35;;;;;;;13.10;8.37;;;13.90;94.30;;;;;;5004276;28;20519;-54
2023/05/25 09:06:01;;;;;;;21.40;9.10;;;13.90;94.00;;;;;;5004253;28;20498;-55
2023/05/25 09:08:27;;;;;;;33.50;9.93;;;13.90;94.50;;;;;;5000887;28;20442;-55
2023/05/25 09:10:55;;;;;;;15.20;7.70;;;14.00;94.40;;;;;;5000745;28;20451;-53
2023/05/25 09:13:21;;;;;;;19.37;8.90;;;14.00;94.10;;;;;;5043229;22;20222;-56
2023/05/25 09:15:47;;;;;;;12.63;8.10;;;14.00;94.00;;;;;;5035783;28;20461;-56
2023/05/25 09:18:13;;;;;;;17.10;8.33;;;14.10;94.50;;;;;;5039198;28;20179;-56
2023/05/25 09:20:38;;;;;;;17.30;9.60;;;14.10;94.30;;;;;;5040433;28;21007;-55
2023/05/25 09:23:04;;;;;;;14.40;8.87;;;14.10;94.10;;;;;;5041903;28;20222;-55
2023/05/25 09:25:32;;;;;;;18.83;8.50;;;14.20;93.30;;;;;;5044431;28;20203;-54
2023/05/25 09:27:58;;;;;;;13.30;8.00;;;14.30;93.20;;;;;;5034689;28;20854;-54
2023/05/25 09:30:24;;;;;;;11.80;8.60;;;14.30;92.30;;;;;;5037943;28;20437;-57
2023/05/25 09:32:50;;;;;;;15.23;8.80;;;14.30;89.70;;;;;;5038245;28;20570;-55
2023/05/25 09:35:16;;;;;;;17.30;9.33;;;14.30;90.00;;;;;;5037625;28;20433;-55
2023/05/25 09:37:43;;;;;;;21.40;9.20;;;14.30;89.40;;;;;;5040218;28;20183;-56
2023/05/25 09:40:09;;;;;;;15.63;9.63;;;14.30;90.50;;;;;;5038862;28;20183;-55
2023/05/25 09:42:36;;;;;;;14.10;8.40;;;14.40;91.00;;;;;;5044152;28;20544;-54
2023/05/25 09:45:02;;;;;;;16.87;9.97;;;14.40;91.20;;;;;;5043303;28;20468;-58
2023/05/25 09:47:28;;;;;;;18.30;9.23;;;14.40;90.30;;;;;;5043848;28;20512;-55
2023/05/25 09:49:58;;;;;;;14.30;9.30;;;14.50;88.80;;;;;;5028692;28;20435;-54
2023/05/25 09:52:24;;;;;;;18.80;9.57;;;14.60;89.00;;;;;;5025816;28;20426;-58
2023/05/25 09:54:51;;;;;;;12.87;8.20;;;14.60;87.80;;;;;;5035449;28;20501;-56
2023/05/25 09:57:19;;;;;;;15.30;9.77;;;14.70;87.20;;;;;;5038333;28;20439;-56
2023/05/25 09:59:45;;;;;;;20.10;9.33;;;14.70;86.60;;;;;;5042014;28;20486;-58
2023/05/25 10:02:12;;;;;;;17.93;9.40;;;14.80;85.80;;;;;;5041522;28;20946;-57
2023/05/25 10:04:38;;;;;;;16.33;9.80;;;14.90;87.00;;;;;;5038683;28;20441;-58
2023/05/25 10:07:04;;;;;;;26.93;9.97;;;15.00;83.90;;;;;;5049567;28;20465;-54
2023/05/25 10:09:34;;;;;;;17.33;9.53;;;15.30;86.20;;;;;;5041979;28;20421;-57
2023/05/25 10:12:01;;;;;;;17.30;10.70;;;15.50;82.00;;;;;;5040686;28;20448;-54
2023/05/25 10:14:28;;;;;;;13.53;9.47;;;15.80;76.90;;;;;;5046932;28;20823;-56
2023/05/25 10:16:56;;;;;;;13.90;10.10;;;15.90;72.60;;;;;;5050286;28;20819;-56
2023/05/25 10:19:31;;;;;;;16.20;9.00;;;15.90;72.20;;;;;;5039194;28;20437;-55
2023/05/25 10:22:07;;;;;;;13.30;9.90;;;16.10;72.90;;;;;;5038043;28;20433;-55
2023/05/25 10:24:54;;;;;;;16.77;9.40;;;16.20;72.40;;;;;;5032415;28;20808;-56
2023/05/25 10:27:24;;;;;;;18.63;9.87;;;16.40;70.20;;;;;;5015757;28;20429;-55
2023/05/25 10:29:51;;;;;;;15.73;10.23;;;16.60;69.10;;;;;;5042782;28;20430;-58
2023/05/25 10:32:17;;;;;;;17.63;9.13;;;16.90;70.20;;;;;;5046368;28;20433;-57
2023/05/25 10:34:44;;;;;;;24.50;9.33;;;17.20;70.60;;;;;;5042090;28;20499;-57
2023/05/25 10:37:13;;;;;;;17.07;8.70;;;17.50;70.40;;;;;;5035501;28;20440;-55
2023/05/25 10:39:41;;;;;;;13.33;9.97;;;17.80;68.20;;;;;;5041626;28;20429;-55
2023/05/25 10:42:07;;;;;;;11.13;8.60;;;18.00;66.30;;;;;;5044447;28;21052;-56
2023/05/25 10:44:33;;;;;;;17.50;9.63;;;18.10;65.40;;;;;;5044006;28;20499;-55
2023/05/25 10:46:59;;;;;;;13.80;8.87;;;18.20;66.40;;;;;;5040309;28;20537;-59
2023/05/25 10:49:51;;;;;;;13.67;9.33;;;18.30;66.00;;;;;;5043679;28;20258;-54
2023/05/25 10:52:18;;;;;;;14.33;9.13;;;18.40;64.40;;;;;;5026326;28;20664;-57
2023/05/25 10:54:46;;;;;;;14.40;9.57;;;18.50;61.10;;;;;;5026661;28;20434;-55
2023/05/25 10:57:18;;;;;;;15.53;9.70;;;18.60;61.40;;;;;;5030678;28;20434;-56
2023/05/25 10:59:53;;;;;;;15.33;9.37;;;18.80;61.60;;;;;;5035671;28;21129;-57
2023/05/25 11:02:22;;;;;;;13.03;9.70;;;18.90;61.60;;;;;;5036276;28;20798;-58
2023/05/25 11:04:49;;;;;;;11.90;8.53;;;19.10;62.00;;;;;;5035974;28;20802;-57
2023/05/25 11:07:17;;;;;;;15.53;8.77;;;19.30;62.90;;;;;;5028390;28;20827;-59
2023/05/25 11:09:55;;;;;;;17.10;9.50;;;19.40;61.50;;;;;;5040604;28;20422;-56
2023/05/25 11:12:21;;;;;;;13.67;9.77;;;19.50;60.40;;;;;;5043828;28;20432;-56
2023/05/25 11:15:10;;;;;;;11.60;9.30;;;19.60;60.50;;;;;;5040400;28;20429;-57
2023/05/25 11:17:59;;;;;;;15.27;9.30;;;19.70;59.50;;;;;;5035179;28;20422;-58
2023/05/25 11:20:26;;;;;;;13.50;9.53;;;19.80;58.90;;;;;;5038593;28;20433;-58
2023/05/25 11:22:52;;;;;;;13.63;9.50;;;19.80;58.90;;;;;;5043204;28;20453;-56
2023/05/25 11:25:47;;;;;;;14.70;9.80;;;20.00;58.80;;;;;;5039350;28;20461;-54
2023/05/25 11:28:14;;;;;;;13.63;9.27;;;20.00;57.60;;;;;;5023237;28;20241;-58
2023/05/25 11:30:43;;;;;;;11.00;8.73;;;20.10;58.50;;;;;;5042805;28;20946;-58
2023/05/25 11:33:09;;;;;;;13.87;9.70;;;20.20;58.30;;;;;;5041119;28;20539;-56
2023/05/25 11:35:37;;;;;;;19.57;9.33;;;20.30;58.50;;;;;;5041331;28;20457;-60
2023/05/25 11:38:05;;;;;;;13.73;9.33;;;20.30;57.00;;;;;;5037485;28;20182;-61
2023/05/25 11:40:31;;;;;;;17.17;9.70;;;20.40;57.20;;;;;;5049139;28;20430;-56
2023/05/25 11:42:59;;;;;;;15.20;8.80;;;20.40;56.50;;;;;;5039656;28;20502;-55
2023/05/25 11:45:27;;;;;;;13.63;7.83;;;20.50;58.30;;;;;;5035617;28;20198;-57
2023/05/25 11:47:53;;;;;;;14.03;8.57;;;20.70;58.60;;;;;;5039425;28;20430;-57
2023/05/25 11:50:20;;;;;;;12.30;8.13;;;20.90;57.20;;;;;;5042844;28;20428;-57
2023/05/25 11:52:45;;;;;;;13.23;8.40;;;21.00;57.40;;;;;;5034905;28;20261;-59
2023/05/25 11:55:13;;;;;;;14.67;9.47;;;21.20;57.10;;;;;;5043803;28;20507;-57
2023/05/25 11:57:39;;;;;;;14.90;9.07;;;21.40;57.70;;;;;;5048099;28;20190;-57
2023/05/25 12:00:06;;;;;;;14.53;9.00;;;21.60;57.30;;;;;;5042050;28;20565;-56
2023/05/25 12:02:40;;;;;;;11.77;8.77;;;21.60;57.00;;;;;;5035120;28;20528;-56
2023/05/25 12:05:06;;;;;;;12.17;9.00;;;21.40;56.00;;;;;;5040578;28;20575;-55
2023/05/25 12:07:33;;;;;;;11.10;9.00;;;21.30;57.20;;;;;;5041961;28;20429;-57
2023/05/25 12:10:09;;;;;;;9.70;7.97;;;21.40;57.20;;;;;;5037436;28;20496;-57
2023/05/25 12:12:47;;;;;;;19.73;8.70;;;21.40;57.50;;;;;;5043192;28;20957;-56
2023/05/25 12:15:23;;;;;;;11.57;8.00;;;21.30;57.50;;;;;;5039085;28;20462;-56
2023/05/25 12:17:50;;;;;;;11.47;8.67;;;21.10;57.20;;;;;;5043315;28;20429;-58
2023/05/25 12:20:16;;;;;;;11.93;8.00;;;21.20;58.00;;;;;;5041666;28;20461;-58
2023/05/25 12:22:43;;;;;;;16.23;9.10;;;21.30;58.10;;;;;;5037564;28;20447;-57
2023/05/25 12:25:11;;;;;;;11.90;8.20;;;21.40;56.80;;;;;;5043231;28;20486;-57
2023/05/25 12:27:38;;;;;;;10.57;7.43;;;21.50;57.20;;;;;;5043220;28;20503;-57
2023/05/25 12:30:06;;;;;;;10.77;7.43;;;21.80;56.80;;;;;;5042240;28;20440;-60
2023/05/25 12:32:32;;;;;;;13.23;8.67;;;22.10;55.80;;;;;;5042876;28;20827;-56
2023/05/25 12:35:02;;;;;;;11.63;8.37;;;22.30;55.40;;;;;;5042543;28;20932;-58
2023/05/25 12:37:28;;;;;;;16.33;8.30;;;22.40;54.60;;;;;;5040356;28;20175;-57
2023/05/25 12:39:54;;;;;;;9.80;7.13;;;22.50;54.70;;;;;;5040358;28;20434;-57